Time;durP1;ratioP1;P1;durP2;ratioP2;P2;SDS_P1;SDS_P2;PMS_P1;PMS_P2;Temp;Humidity;BMP_temperature;BMP_pressure;BME280_temperature;BME280_humidity;BME280_pressure;Samples;Min_cycle;Max_cycle;Signal;HPM_P1;HPM_P2
2023/10/03 00:01:00;;;;;;;10.40;6.70;;;;;;;10.18;66.69;101343.68;107880;1257;74218;-71
2023/10/03 00:03:28;;;;;;;11.10;6.80;;;;;;;10.18;66.84;101345.27;107946;1258;72491;-70
2023/10/03 00:05:55;;;;;;;11.00;7.00;;;;;;;10.18;66.82;101347.85;107965;1255;72783;-71
2023/10/03 00:08:23;;;;;;;10.60;6.90;;;;;;;10.18;66.73;101346.98;107936;1257;60517;-71
2023/10/03 00:10:50;;;;;;;9.70;6.60;;;;;;;10.19;66.96;101348.50;107856;1257;61123;-71
2023/10/03 00:13:19;;;;;;;9.30;6.20;;;;;;;10.19;66.78;101342.46;107921;1257;74748;-72
2023/10/03 00:15:46;;;;;;;10.50;6.30;;;;;;;10.18;66.67;101341.00;107917;1256;71717;-72
2023/10/03 00:18:13;;;;;;;11.10;6.80;;;;;;;10.16;66.67;101342.14;107975;1256;72832;-71
2023/10/03 00:20:41;;;;;;;9.70;6.70;;;;;;;10.11;66.74;101341.13;107912;1258;61881;-71
2023/10/03 00:23:08;;;;;;;8.90;5.80;;;;;;;10.09;66.68;101344.36;108039;1257;62077;-70
2023/10/03 00:25:36;;;;;;;9.70;6.00;;;;;;;10.05;66.72;101343.73;108006;1256;74482;-70
2023/10/03 00:28:06;;;;;;;10.30;6.10;;;;;;;9.98;66.86;101345.27;107923;1257;72580;-71
2023/10/03 00:30:35;;;;;;;9.70;6.40;;;;;;;9.94;66.92;101346.86;107909;1256;72763;-71
2023/10/03 00:33:04;;;;;;;10.80;6.00;;;;;;;9.95;66.99;101347.09;107996;1257;61879;-71
2023/10/03 00:35:31;;;;;;;10.70;5.60;;;;;;;9.96;66.94;101345.23;107986;1257;61133;-71
2023/10/03 00:37:58;;;;;;;8.30;5.70;;;;;;;9.96;66.93;101339.84;107934;1259;74454;-73
2023/10/03 00:42:57;;;;;;;9.10;5.70;;;;;;;9.94;66.88;101345.64;107914;1256;72562;-71
2023/10/03 00:45:31;;;;;;;10.30;5.60;;;;;;;9.96;66.77;101345.39;107697;1258;61841;-72
2023/10/03 00:48:01;;;;;;;9.10;5.90;;;;;;;9.98;66.82;101349.02;107894;1260;61154;-72
2023/10/03 00:50:31;;;;;;;8.70;6.00;;;;;;;9.98;66.72;101347.42;107793;1255;74546;-71
2023/10/03 00:53:00;;;;;;;10.80;6.60;;;;;;;9.97;66.68;101346.80;107943;1257;72569;-71
2023/10/03 00:55:28;;;;;;;10.00;6.00;;;;;;;9.98;66.82;101346.73;108019;1259;72565;-71
2023/10/03 01:00:43;;;;;;;9.20;5.80;;;;;;;9.96;66.77;101341.48;107947;1257;61238;-71
2023/10/03 01:03:47;;;;;;;10.30;6.40;;;;;;;9.94;66.74;101344.92;107896;1256;74555;-71
2023/10/03 01:06:15;;;;;;;10.70;6.40;;;;;;;9.92;66.78;101341.57;107674;1257;73010;-71
2023/10/03 01:08:46;;;;;;;11.60;6.60;;;;;;;9.86;66.71;101340.23;107977;1257;72796;-71
2023/10/03 01:11:20;;;;;;;10.60;6.60;;;;;;;9.81;66.70;101339.52;107988;1255;61877;-71
2023/10/03 01:13:56;;;;;;;9.30;6.00;;;;;;;9.82;66.77;101338.63;107930;1256;59382;-71
2023/10/03 01:16:33;;;;;;;9.40;5.80;;;;;;;9.82;66.69;101343.12;107930;1259;74733;-70
2023/10/03 01:21:47;;;;;;;10.70;6.20;;;;;;;9.74;66.76;101337.16;107807;1260;71527;-70
2023/10/03 01:24:15;;;;;;;10.50;5.70;;;;;;;9.72;66.85;101335.20;107956;1256;61720;-70
2023/10/03 01:26:41;;;;;;;10.30;6.30;;;;;;;9.67;66.87;101331.92;107893;1256;60407;-72
2023/10/03 01:29:08;;;;;;;9.80;5.90;;;;;;;9.62;67.01;101331.83;107947;1257;73156;-70
2023/10/03 01:31:35;;;;;;;9.30;5.90;;;;;;;9.63;67.03;101332.80;107921;1257;71167;-72
2023/10/03 01:34:05;;;;;;;10.40;5.80;;;;;;;9.64;67.05;101331.76;108000;1258;71183;-72
2023/10/03 01:36:33;;;;;;;9.00;6.20;;;;;;;9.66;67.11;101334.05;107994;1257;61157;-70
2023/10/03 01:39:00;;;;;;;9.50;6.10;;;;;;;9.69;67.00;101333.59;107990;1257;61118;-70
2023/10/03 01:41:27;;;;;;;10.70;6.20;;;;;;;9.71;67.05;101333.89;107934;1258;74666;-71
2023/10/03 01:43:54;;;;;;;9.40;6.00;;;;;;;9.73;66.93;101332.45;107961;1258;72528;-70
2023/10/03 01:46:21;;;;;;;10.20;6.10;;;;;;;9.73;66.97;101328.39;107937;1259;72791;-70
2023/10/03 01:48:49;;;;;;;10.10;5.70;;;;;;;9.73;66.85;101333.61;107932;1255;63322;-71
2023/10/03 01:51:16;;;;;;;8.50;5.70;;;;;;;9.73;66.85;101330.25;107948;1257;61145;-71
2023/10/03 01:53:45;;;;;;;9.00;5.60;;;;;;;9.74;66.82;101329.19;107960;1257;74781;-71
2023/10/03 01:56:14;;;;;;;8.40;5.90;;;;;;;9.72;66.83;101331.05;107932;1256;71615;-71
2023/10/03 01:58:41;;;;;;;9.20;5.90;;;;;;;9.70;66.85;101328.64;107915;1256;72471;-70
2023/10/03 02:01:10;;;;;;;9.50;6.00;;;;;;;9.69;66.58;101325.47;107921;1256;61699;-71
2023/10/03 02:03:37;;;;;;;9.30;6.00;;;;;;;9.65;66.72;101327.80;107950;1257;61122;-70
2023/10/03 02:06:06;;;;;;;9.20;6.00;;;;;;;9.63;66.59;101331.05;107942;1257;74650;-69
2023/10/03 02:08:34;;;;;;;9.80;6.30;;;;;;;9.63;66.69;101330.77;107915;1256;72818;-71
2023/10/03 02:11:06;;;;;;;11.80;6.50;;;;;;;9.62;66.54;101328.63;107933;1257;72762;-71
2023/10/03 02:13:34;;;;;;;9.40;6.70;;;;;;;9.61;66.53;101332.57;107849;1256;61282;-70
2023/10/03 02:16:01;;;;;;;8.40;6.00;;;;;;;9.60;66.53;101330.77;107594;1257;61164;-71
2023/10/03 02:18:28;;;;;;;10.50;6.80;;;;;;;9.61;66.59;101329.67;107878;1257;74620;-71
2023/10/03 02:21:05;;;;;;;11.30;6.80;;;;;;;9.60;66.62;101326.28;107693;1257;71492;-71
2023/10/03 02:23:32;;;;;;;11.70;6.10;;;;;;;9.60;66.63;101331.08;107989;1257;70853;-71
2023/10/03 02:26:10;;;;;;;10.10;6.60;;;;;;;9.60;66.60;101329.75;107936;1255;62045;-70
2023/10/03 02:28:38;;;;;;;10.00;6.10;;;;;;;9.58;66.56;101326.19;107860;1256;60460;-71
2023/10/03 02:31:07;;;;;;;9.50;6.60;;;;;;;9.57;66.53;101323.90;107882;1257;73683;-72
2023/10/03 02:33:37;;;;;;;10.90;6.60;;;;;;;9.56;66.54;101327.36;107947;1257;72567;-71
2023/10/03 02:36:05;;;;;;;12.60;6.80;;;;;;;9.54;66.56;101323.18;107996;1255;70236;-71
2023/10/03 02:38:36;;;;;;;11.00;6.40;;;;;;;9.54;66.51;101324.59;107805;1258;61125;-71
2023/10/03 02:41:05;;;;;;;8.70;6.30;;;;;;;9.51;66.53;101323.31;107795;1257;61156;-71
2023/10/03 02:43:36;;;;;;;10.40;6.40;;;;;;;9.49;66.41;101329.91;107921;1256;74708;-71
2023/10/03 02:46:11;;;;;;;9.00;5.90;;;;;;;9.46;66.34;101330.75;107907;1256;71763;-71
2023/10/03 02:48:38;;;;;;;9.50;5.60;;;;;;;9.40;66.34;101331.23;107806;1256;71338;-72
2023/10/03 02:51:07;;;;;;;8.50;5.80;;;;;;;9.36;66.44;101327.48;107991;1256;61655;-72
2023/10/03 02:53:35;;;;;;;7.80;5.10;;;;;;;9.33;66.44;101329.16;107926;1258;61875;-70
2023/10/03 02:56:05;;;;;;;7.50;5.00;;;;;;;9.30;66.34;101331.27;107820;1257;74810;-71
2023/10/03 02:58:31;;;;;;;7.50;4.50;;;;;;;9.29;66.39;101332.73;107999;1256;71817;-70
2023/10/03 03:00:58;;;;;;;7.60;5.00;;;;;;;9.26;66.42;101336.52;107962;1256;73077;-71
2023/10/03 03:03:32;;;;;;;8.20;5.20;;;;;;;9.26;66.33;101336.44;107943;1256;62262;-71
2023/10/03 03:06:09;;;;;;;7.90;4.50;;;;;;;9.28;66.15;101337.95;107743;1256;267528;-71
2023/10/03 03:08:44;;;;;;;7.90;4.80;;;;;;;9.28;66.08;101336.88;107716;1257;74371;-72
2023/10/03 03:11:11;;;;;;;6.10;4.40;;;;;;;9.26;66.00;101338.69;107940;1259;71948;-70
2023/10/03 03:13:38;;;;;;;6.60;4.30;;;;;;;9.23;66.04;101336.48;107882;1257;70235;-71
2023/10/03 03:16:06;;;;;;;5.80;4.20;;;;;;;9.19;65.91;101342.15;107970;1256;61195;-71
2023/10/03 03:18:40;;;;;;;7.00;4.20;;;;;;;9.14;65.86;101340.90;107908;1255;59407;-70
2023/10/03 03:21:14;;;;;;;6.20;4.30;;;;;;;9.07;65.91;101343.36;107996;1256;74587;-70
2023/10/03 03:23:43;;;;;;;6.20;4.00;;;;;;;9.03;66.01;101342.39;107869;1256;70451;-70
2023/10/03 03:26:17;;;;;;;7.20;3.90;;;;;;;9.03;66.09;101338.91;107969;1256;71262;-72
2023/10/03 03:28:47;;;;;;;7.30;4.40;;;;;;;9.03;66.06;101343.38;107926;1256;61871;-71
2023/10/03 03:31:21;;;;;;;7.40;4.60;;;;;;;8.99;66.03;101347.01;107947;1256;61277;-71
2023/10/03 03:33:50;;;;;;;6.80;4.40;;;;;;;9.00;66.26;101349.33;107873;1257;73420;-71
2023/10/03 03:36:22;;;;;;;6.50;4.50;;;;;;;9.03;66.35;101346.73;107745;1255;71386;-71
2023/10/03 03:38:51;;;;;;;;;;;;;;;9.08;66.27;101341.50;107961;1256;72981;-71
2023/10/03 03:41:18;;;;;;;8.10;4.60;;;;;;;9.13;66.31;101340.81;107916;1256;60676;-71
2023/10/03 03:43:47;;;;;;;9.00;4.60;;;;;;;9.12;66.28;101339.84;107967;1256;61004;-72
2023/10/03 03:46:15;;;;;;;6.70;4.50;;;;;;;9.10;66.33;101337.54;107984;1255;74781;-71
2023/10/03 03:48:42;;;;;;;5.40;4.00;;;;;;;9.10;66.30;101338.07;108049;1256;70722;-71
2023/10/03 03:51:12;;;;;;;6.50;4.00;;;;;;;9.09;66.23;101337.05;108001;1256;73222;-71
2023/10/03 03:53:39;;;;;;;6.90;4.60;;;;;;;9.05;66.15;101337.36;107981;1255;61766;-71
2023/10/03 03:56:07;;;;;;;5.40;3.80;;;;;;;8.97;66.17;101335.66;107932;1255;61130;-71
2023/10/03 03:58:37;;;;;;;5.80;3.90;;;;;;;8.87;66.18;101335.85;107978;1255;74760;-71
2023/10/03 04:01:12;;;;;;;6.30;4.00;;;;;;;8.78;66.27;101333.30;107992;1256;71320;-71
2023/10/03 04:03:39;;;;;;;6.00;4.00;;;;;;;8.68;66.39;101330.81;107784;1256;71630;-70
2023/10/03 04:06:07;;;;;;;6.50;4.00;;;;;;;8.61;66.59;101328.63;107967;1256;62086;-71
2023/10/03 04:08:35;;;;;;;5.60;4.00;;;;;;;8.61;66.66;101333.11;107975;1256;61293;-71
2023/10/03 04:11:05;;;;;;;6.10;3.90;;;;;;;8.67;66.68;101328.58;107967;1255;73672;-70
2023/10/03 04:13:38;;;;;;;6.40;4.30;;;;;;;8.72;66.73;101328.98;107737;1255;72501;-71
2023/10/03 04:16:06;;;;;;;6.20;4.00;;;;;;;8.74;66.66;101328.29;107983;1256;71146;-71
2023/10/03 04:18:34;;;;;;;6.20;4.10;;;;;;;8.74;66.68;101329.26;107979;1256;62021;-71
2023/10/03 04:21:01;;;;;;;6.20;4.00;;;;;;;8.76;66.69;101330.20;107961;1256;61258;-71
2023/10/03 04:23:28;;;;;;;5.60;3.70;;;;;;;8.76;66.81;101333.79;107981;1257;75135;-70
2023/10/03 04:25:55;;;;;;;7.30;4.00;;;;;;;8.79;66.80;101338.29;107982;1256;72452;-72
2023/10/03 04:28:21;;;;;;;8.30;4.10;;;;;;;8.83;66.79;101340.10;107914;1256;72464;-70
2023/10/03 04:30:49;;;;;;;6.10;4.20;;;;;;;8.88;66.85;101341.34;107852;1255;61934;-70
2023/10/03 04:33:20;;;;;;;7.00;4.10;;;;;;;8.89;66.79;101340.95;107903;1256;61116;-72
2023/10/03 04:35:51;;;;;;;6.80;4.10;;;;;;;8.88;66.82;101345.88;107979;1256;74778;-72
2023/10/03 04:38:18;;;;;;;7.10;4.50;;;;;;;8.88;66.90;101348.50;107966;1255;72550;-70
2023/10/03 04:40:47;;;;;;;7.70;4.90;;;;;;;8.94;66.87;101352.44;108041;1255;72942;-71
2023/10/03 04:43:14;;;;;;;8.10;4.90;;;;;;;9.00;66.86;101355.92;107804;1256;61927;-71
2023/10/03 04:45:42;;;;;;;8.90;5.20;;;;;;;9.01;66.85;101356.02;107936;1260;61235;-71
2023/10/03 04:48:12;;;;;;;9.00;4.80;;;;;;;9.02;67.04;101359.17;107979;1255;73409;-71
2023/10/03 04:50:40;;;;;;;8.20;5.10;;;;;;;9.04;67.14;101359.34;107971;1255;72845;-71
2023/10/03 04:53:14;;;;;;;7.80;5.40;;;;;;;9.06;67.23;101360.74;107982;1256;72557;-70
2023/10/03 04:55:44;;;;;;;6.90;4.50;;;;;;;9.11;67.36;101361.41;107941;1255;62223;-72
2023/10/03 04:58:12;;;;;;;6.40;4.70;;;;;;;9.15;67.52;101356.12;107792;1256;61273;-71
2023/10/03 05:00:39;;;;;;;6.30;3.90;;;;;;;9.19;67.68;101358.23;107898;1256;74680;-70
2023/10/03 05:03:09;;;;;;;5.90;4.00;;;;;;;9.20;67.84;101360.89;108022;1255;73844;-70
2023/10/03 05:05:36;;;;;;;6.30;4.30;;;;;;;9.23;67.99;101360.67;107929;1256;72707;-71
2023/10/03 05:08:03;;;;;;;7.20;4.30;;;;;;;9.28;68.16;101364.49;107949;1255;61264;-71
2023/10/03 05:10:30;;;;;;;5.60;3.70;;;;;;;9.36;68.42;101367.90;107969;1256;61357;-71
2023/10/03 05:12:57;;;;;;;6.70;4.20;;;;;;;9.45;68.57;101363.79;107871;1256;74715;-71
2023/10/03 05:15:26;;;;;;;6.40;4.30;;;;;;;9.55;68.65;101364.89;107935;1256;72960;-71
2023/10/03 05:17:54;;;;;;;6.30;3.90;;;;;;;9.66;68.89;101360.36;107981;1256;72700;-71
2023/10/03 05:20:21;;;;;;;7.10;4.00;;;;;;;9.80;68.90;101364.03;107928;1256;61819;-71
2023/10/03 05:22:48;;;;;;;6.90;4.60;;;;;;;9.92;68.94;101367.92;107906;1256;61156;-71
2023/10/03 05:25:18;;;;;;;8.00;5.00;;;;;;;10.04;69.12;101369.59;107934;1256;74638;-70
2023/10/03 05:27:49;;;;;;;6.80;4.50;;;;;;;10.19;69.21;101370.17;107747;1256;72620;-71
2023/10/03 05:30:16;;;;;;;6.90;4.50;;;;;;;10.33;69.45;101370.88;107902;1256;71455;-72
2023/10/03 05:32:46;;;;;;;7.70;4.60;;;;;;;10.49;69.43;101369.41;107941;1256;61884;-71
2023/10/03 05:35:13;;;;;;;7.70;5.00;;;;;;;10.70;69.57;101370.77;107905;1255;61164;-71
2023/10/03 05:37:40;;;;;;;9.00;5.20;;;;;;;10.90;69.57;101372.17;107879;1256;74656;-71
2023/10/03 05:40:20;;;;;;;9.10;5.50;;;;;;;11.13;69.77;101372.16;107961;1256;71339;-71
2023/10/03 05:42:47;;;;;;;9.60;5.70;;;;;;;11.38;69.93;101371.09;107808;1257;72521;-71
2023/10/03 05:45:15;;;;;;;10.10;5.60;;;;;;;11.63;70.12;101371.48;107857;1256;61686;-72
2023/10/03 05:47:46;;;;;;;8.40;5.30;;;;;;;11.89;70.27;101372.34;107952;1255;61218;-71
2023/10/03 05:50:14;;;;;;;12.10;6.40;;;;;;;12.18;70.47;101371.37;107835;1255;74628;-73
2023/10/03 05:52:44;;;;;;;9.20;5.60;;;;;;;12.48;70.51;101376.73;107937;1255;73890;-72
2023/10/03 05:55:11;;;;;;;12.80;6.80;;;;;;;12.73;70.51;101372.26;107961;1255;72659;-71
2023/10/03 05:57:40;;;;;;;11.20;6.30;;;;;;;12.96;70.53;101373.57;107744;1256;61822;-72
2023/10/03 06:00:16;;;;;;;10.20;6.00;;;;;;;13.17;70.30;101372.77;107955;1255;61128;-71
2023/10/03 06:02:43;;;;;;;11.40;6.30;;;;;;;13.39;70.21;101364.88;108006;1255;74528;-70
2023/10/03 06:05:12;;;;;;;14.80;6.20;;;;;;;13.59;69.98;101367.93;107974;1256;72531;-70
2023/10/03 06:07:41;;;;;;;11.10;6.00;;;;;;;13.78;69.64;101368.01;107870;1256;71278;-71
2023/10/03 06:10:10;;;;;;;13.00;6.10;;;;;;;13.95;69.41;101360.39;107945;1260;61679;-71
2023/10/03 06:12:37;;;;;;;13.40;6.50;;;;;;;14.08;69.02;101355.42;107958;1255;61239;-71
2023/10/03 06:15:05;;;;;;;15.00;6.00;;;;;;;14.18;68.51;101350.73;107942;1255;74459;-72
2023/10/03 06:17:33;;;;;;;11.10;6.30;;;;;;;14.25;68.03;101351.63;107958;1256;72683;-70
2023/10/03 06:20:00;;;;;;;12.40;6.50;;;;;;;14.33;67.63;101357.20;107934;1255;72456;-70
2023/10/03 06:22:27;;;;;;;13.00;5.80;;;;;;;14.40;67.37;101352.44;107930;1256;62348;-72
2023/10/03 06:24:57;;;;;;;14.30;5.50;;;;;;;14.49;66.97;101359.54;107987;1255;61228;-72
2023/10/03 06:27:26;;;;;;;14.00;5.90;;;;;;;14.57;66.70;101360.38;107970;1256;74779;-73
2023/10/03 06:29:54;;;;;;;12.60;5.70;;;;;;;14.67;66.31;101351.06;107922;1256;72543;-71
2023/10/03 06:32:21;;;;;;;11.00;5.70;;;;;;;14.79;65.97;101348.03;107850;1256;71152;-72
2023/10/03 06:34:48;;;;;;;12.80;6.10;;;;;;;14.91;65.80;101351.06;107903;1256;63664;-71
2023/10/03 06:37:15;;;;;;;13.70;6.00;;;;;;;15.04;65.40;101354.73;107905;1255;61138;-71
2023/10/03 06:39:42;;;;;;;13.20;5.30;;;;;;;15.15;64.95;101360.02;107993;1255;73611;-72
2023/10/03 06:42:09;;;;;;;13.20;5.60;;;;;;;15.25;64.46;101353.67;107696;1256;72691;-71
2023/10/03 06:44:40;;;;;;;10.90;4.90;;;;;;;15.34;63.75;101360.58;108005;1256;71403;-71
2023/10/03 06:47:08;;;;;;;13.80;5.60;;;;;;;15.32;62.65;101367.95;107950;1260;61245;-72
2023/10/03 06:49:36;;;;;;;11.50;5.90;;;;;;;15.30;62.46;101368.38;107955;1256;60428;-72
2023/10/03 06:52:03;;;;;;;14.40;5.80;;;;;;;15.38;62.23;101361.66;107934;1256;74647;-71
2023/10/03 06:54:31;;;;;;;12.10;5.30;;;;;;;15.43;61.93;101355.52;107919;1259;72850;-72
2023/10/03 06:56:58;;;;;;;13.70;6.00;;;;;;;15.54;61.63;101355.94;107946;1256;72847;-72
2023/10/03 06:59:26;;;;;;;11.30;6.00;;;;;;;15.64;61.18;101362.80;107938;1255;61860;-72
2023/10/03 07:01:53;;;;;;;12.10;6.40;;;;;;;15.75;60.69;101366.23;107946;1256;61012;-72
2023/10/03 07:04:20;;;;;;;12.10;5.70;;;;;;;15.79;59.99;101358.85;107867;1256;74657;-72
2023/10/03 07:06:50;;;;;;;12.50;5.90;;;;;;;15.83;59.77;101359.76;107919;1256;72714;-72
2023/10/03 07:09:24;;;;;;;10.40;5.40;;;;;;;15.91;59.66;101353.22;107958;1255;72509;-72
2023/10/03 07:11:52;;;;;;;11.10;5.20;;;;;;;16.03;59.57;101354.65;107860;1259;61156;-72
2023/10/03 07:14:20;;;;;;;12.70;5.40;;;;;;;16.15;59.37;101351.44;107926;1255;61279;-71
2023/10/03 07:16:48;;;;;;;12.00;5.40;;;;;;;16.27;59.00;101349.52;107945;1255;73691;-71
2023/10/03 07:19:15;;;;;;;9.80;5.10;;;;;;;16.36;58.80;101353.56;107987;1256;74134;-71
2023/10/03 07:21:42;;;;;;;11.00;5.70;;;;;;;16.49;58.75;101351.63;107939;1256;71552;-72
2023/10/03 07:24:09;;;;;;;13.10;5.90;;;;;;;16.64;58.66;101348.52;108008;1256;61241;-73
2023/10/03 07:26:37;;;;;;;12.00;5.90;;;;;;;16.77;58.18;101345.45;107899;1255;61101;-72
2023/10/03 07:29:04;;;;;;;11.80;5.80;;;;;;;16.88;57.71;101347.88;107826;1256;75619;-72
2023/10/03 07:31:32;;;;;;;12.20;6.00;;;;;;;16.97;57.32;101351.11;107903;1254;72760;-71
2023/10/03 07:33:59;;;;;;;11.80;5.30;;;;;;;17.06;57.02;101349.42;107774;1256;72430;-73
2023/10/03 07:36:27;;;;;;;16.30;6.30;;;;;;;17.16;56.36;101348.98;108700;1255;61224;-71
2023/10/03 07:38:54;;;;;;;12.40;5.60;;;;;;;17.21;55.96;101345.98;107939;1256;61156;-70
2023/10/03 07:41:22;;;;;;;9.70;4.80;;;;;;;17.32;55.62;101346.91;108006;1256;74555;-70
2023/10/03 07:43:52;;;;;;;12.20;5.60;;;;;;;17.39;54.94;101345.17;107751;1256;72831;-71
2023/10/03 07:46:20;;;;;;;12.60;6.00;;;;;;;17.46;54.77;101345.98;107861;1256;72573;-71
2023/10/03 07:48:52;;;;;;;11.80;5.40;;;;;;;17.55;54.58;101344.98;107953;1255;61758;-71
2023/10/03 07:51:23;;;;;;;14.40;5.90;;;;;;;17.67;54.77;101347.14;107928;1255;61138;-71
2023/10/03 07:53:55;;;;;;;12.00;5.60;;;;;;;17.77;54.38;101347.11;107982;1254;73888;-71
2023/10/03 07:56:29;;;;;;;12.70;6.00;;;;;;;17.85;53.44;101348.88;107948;1256;72871;-71
2023/10/03 07:58:59;;;;;;;14.60;5.70;;;;;;;17.90;53.21;101345.41;107887;1255;71542;-72
2023/10/03 08:01:27;;;;;;;12.70;5.70;;;;;;;17.98;52.74;101341.10;107923;1256;62049;-71
2023/10/03 08:03:55;;;;;;;14.00;6.10;;;;;;;18.03;52.62;101339.98;107965;1256;60275;-71
2023/10/03 08:06:27;;;;;;;16.00;6.50;;;;;;;18.12;52.99;101339.50;107897;1256;74828;-72
2023/10/03 08:08:59;;;;;;;12.50;5.70;;;;;;;18.27;53.06;101341.91;107961;1256;72605;-72
2023/10/03 08:11:30;;;;;;;;;;;;;;;18.48;52.69;101345.98;107925;1256;73522;-71
2023/10/03 08:14:11;;;;;;;12.60;5.70;;;;;;;18.63;52.39;101350.86;107905;1256;61355;-72
2023/10/03 08:16:45;;;;;;;10.70;5.20;;;;;;;18.83;51.69;101354.45;107924;1256;60979;-71
2023/10/03 08:19:21;;;;;;;13.80;6.10;;;;;;;19.03;51.28;101355.23;107934;1255;75613;-72
2023/10/03 08:21:48;;;;;;;11.90;5.80;;;;;;;19.21;50.72;101354.41;107925;1255;73866;-69
2023/10/03 08:24:19;;;;;;;10.40;5.70;;;;;;;19.35;50.13;101349.40;107934;1255;73561;-72
2023/10/03 08:26:46;;;;;;;13.20;5.60;;;;;;;19.46;49.76;101344.04;107964;1255;62163;-73
2023/10/03 08:29:23;;;;;;;10.70;5.90;;;;;;;19.58;49.61;101335.43;107715;1255;61362;-71
2023/10/03 08:31:56;;;;;;;12.30;5.70;;;;;;;19.75;49.54;101328.74;107991;1260;75943;-71
2023/10/03 08:34:28;;;;;;;11.00;5.40;;;;;;;19.85;48.42;101329.15;107937;1256;73635;-72
2023/10/03 08:36:58;;;;;;;12.20;5.60;;;;;;;19.86;47.88;101326.59;107955;1260;72457;-72
2023/10/03 08:39:26;;;;;;;11.00;5.60;;;;;;;19.92;47.86;101322.83;107929;1256;63026;-71
2023/10/03 08:42:01;;;;;;;11.70;5.90;;;;;;;20.03;47.48;101319.59;107899;1256;61134;-72
2023/10/03 08:44:31;;;;;;;10.70;5.40;;;;;;;20.13;47.44;101313.97;107903;1255;73580;-72
2023/10/03 08:46:58;;;;;;;14.20;5.90;;;;;;;20.22;46.90;101314.20;107866;1256;73035;-71
2023/10/03 08:49:27;;;;;;;10.40;5.60;;;;;;;20.32;46.89;101311.27;107589;1256;72972;-71
2023/10/03 08:52:01;;;;;;;12.10;5.50;;;;;;;20.43;47.06;101307.19;107972;1256;61227;-72
2023/10/03 08:54:36;;;;;;;12.30;6.00;;;;;;;20.56;46.88;101311.71;107930;1256;61144;-72
2023/10/03 08:57:04;;;;;;;13.20;5.30;;;;;;;20.70;46.39;101309.59;107994;1254;74382;-70
2023/10/03 08:59:31;;;;;;;11.40;5.50;;;;;;;20.80;46.21;101304.09;107961;1256;70942;-71
2023/10/03 09:02:05;;;;;;;12.30;5.80;;;;;;;20.90;45.50;101295.83;107980;1256;72957;-70
2023/10/03 09:04:38;;;;;;;10.50;5.60;;;;;;;20.97;44.94;101291.54;107673;1256;61280;-72
2023/10/03 09:07:11;;;;;;;10.40;5.60;;;;;;;21.04;44.39;101293.98;107975;1255;61134;-71
2023/10/03 09:09:41;;;;;;;10.20;5.60;;;;;;;21.02;43.50;101289.45;107798;1261;75202;-71
2023/10/03 09:12:08;;;;;;;12.70;5.30;;;;;;;20.95;43.39;101289.31;107908;1256;73132;-71
2023/10/03 09:14:39;;;;;;;10.40;5.30;;;;;;;21.00;43.92;101292.67;107911;1256;73870;-72
2023/10/03 09:17:06;;;;;;;8.90;4.90;;;;;;;21.07;43.66;101289.10;107937;1256;61103;-72
2023/10/03 09:19:44;;;;;;;13.80;5.80;;;;;;;21.15;43.21;101285.11;107954;1256;61167;-72
2023/10/03 09:22:15;;;;;;;11.70;5.40;;;;;;;21.14;43.23;101282.30;107975;1256;74210;-72
2023/10/03 09:24:46;;;;;;;11.20;5.30;;;;;;;21.20;43.18;101283.94;107978;1255;72552;-71
2023/10/03 09:27:20;;;;;;;12.60;5.70;;;;;;;21.33;42.84;101281.19;107951;1260;73879;-71
2023/10/03 09:29:49;;;;;;;11.20;5.70;;;;;;;21.46;42.82;101276.30;107884;1256;60982;-71
2023/10/03 09:32:19;;;;;;;10.70;5.10;;;;;;;21.55;42.42;101275.55;107908;1260;61210;-72
2023/10/03 09:34:56;;;;;;;10.90;4.80;;;;;;;21.65;42.52;101276.61;107824;1256;74783;-70
2023/10/03 09:37:29;;;;;;;11.60;5.90;;;;;;;21.77;41.75;101280.95;107880;1256;72050;-71
2023/10/03 09:39:59;;;;;;;13.00;5.90;;;;;;;21.84;40.22;101281.18;107964;1255;73840;-70
2023/10/03 09:42:29;;;;;;;10.30;5.20;;;;;;;21.91;39.75;101278.02;107888;1256;61216;-72
2023/10/03 09:44:59;;;;;;;10.50;5.40;;;;;;;21.93;39.13;101277.05;107929;1256;61328;-69
2023/10/03 09:47:30;;;;;;;12.80;5.60;;;;;;;21.87;39.03;101278.92;107772;1256;74378;-70
2023/10/03 09:50:03;;;;;;;11.30;5.70;;;;;;;21.87;38.82;101281.41;107877;1256;72703;-71
2023/10/03 09:52:32;;;;;;;10.10;5.10;;;;;;;21.91;38.61;101280.70;107864;1256;72687;-72
2023/10/03 09:55:17;;;;;;;10.80;5.50;;;;;;;21.99;38.43;101277.00;107673;1256;61264;-70
2023/10/03 09:57:51;;;;;;;9.50;5.20;;;;;;;22.09;38.42;101272.27;107941;1255;61098;-72
2023/10/03 10:00:50;;;;;;;11.10;5.60;;;;;;;22.20;38.24;101273.14;108004;1255;74792;-71
2023/10/03 10:03:25;;;;;;;12.20;5.50;;;;;;;22.32;37.75;101267.63;107972;1256;72819;-71
2023/10/03 10:06:17;;;;;;;10.50;5.90;;;;;;;22.35;37.12;101270.31;107953;1256;72592;-72
2023/10/03 10:08:58;;;;;;;10.10;5.40;;;;;;;22.36;37.45;101267.39;107892;1255;61131;-71
2023/10/03 10:11:30;;;;;;;10.80;5.10;;;;;;;22.48;37.52;101263.60;107981;1255;61140;-72
2023/10/03 10:14:10;;;;;;;11.00;5.50;;;;;;;22.65;37.65;101261.73;107980;1255;74443;-77
2023/10/03 10:17:06;;;;;;;10.70;5.60;;;;;;;22.86;37.04;101257.36;107893;1255;72731;-72
2023/10/03 10:20:08;;;;;;;10.90;5.80;;;;;;;23.01;36.15;101257.06;107935;1256;72666;-72
2023/10/03 10:25:56;;;;;;;10.10;4.80;;;;;;;23.23;35.35;101254.52;107872;1256;61126;-72
2023/10/03 10:28:26;;;;;;;10.60;5.70;;;;;;;23.24;34.97;101256.77;107737;1256;74601;-71
2023/10/03 10:31:16;;;;;;;12.20;5.80;;;;;;;23.12;34.81;101252.96;107969;1256;72778;-71
2023/10/03 10:33:44;;;;;;;10.90;5.30;;;;;;;23.09;34.73;101251.34;107928;1257;72709;-70
2023/10/03 10:36:12;;;;;;;11.00;5.50;;;;;;;23.17;34.59;101249.50;108282;1256;60182;-72
2023/10/03 10:38:39;;;;;;;11.90;5.70;;;;;;;23.27;34.58;101249.27;107969;1256;61131;-71
2023/10/03 10:41:17;;;;;;;11.00;6.20;;;;;;;23.35;34.21;101243.88;107979;1256;74549;-73
2023/10/03 10:44:13;;;;;;;11.50;5.90;;;;;;;23.40;33.99;101241.27;107943;1256;72712;-72
2023/10/03 10:46:47;;;;;;;9.50;5.20;;;;;;;23.52;34.12;101232.40;107886;1256;72517;-71
2023/10/03 10:49:37;;;;;;;9.30;5.30;;;;;;;23.62;34.22;101230.54;107990;1256;61137;-72
2023/10/03 10:52:06;;;;;;;8.70;5.10;;;;;;;23.67;34.14;101228.16;107928;1256;61083;-70
2023/10/03 10:54:36;;;;;;;9.80;5.40;;;;;;;23.58;33.67;101225.10;107991;1256;74669;-71
2023/10/03 10:57:04;;;;;;;11.40;5.60;;;;;;;23.43;33.90;101227.69;107963;1256;72423;-72
2023/10/03 10:59:31;;;;;;;10.10;5.70;;;;;;;23.25;33.71;101228.57;107926;1256;73937;-73
2023/10/03 11:02:00;;;;;;;8.70;4.90;;;;;;;23.32;33.72;101223.98;107858;1256;61152;-71
2023/10/03 11:04:29;;;;;;;10.80;5.90;;;;;;;22.02;35.63;101222.38;107719;1255;61306;-71
2023/10/03 11:06:55;;;;;;;11.70;5.80;;;;;;;21.54;36.88;101220.09;107920;1259;74893;-71
2023/10/03 11:09:23;;;;;;;8.90;4.80;;;;;;;21.43;37.20;101216.09;107963;1255;72973;-72
2023/10/03 11:11:51;;;;;;;8.50;4.90;;;;;;;21.39;37.10;101211.11;107918;1256;72582;-70
2023/10/03 11:14:29;;;;;;;10.20;5.50;;;;;;;21.37;37.23;101206.48;107974;1256;61137;-72
2023/10/03 11:16:56;;;;;;;10.00;5.30;;;;;;;21.44;37.67;101204.71;107964;1256;61141;-71
2023/10/03 11:19:23;;;;;;;9.60;5.40;;;;;;;21.56;37.68;101202.36;107923;1255;74482;-70
2023/10/03 11:21:49;;;;;;;9.80;5.40;;;;;;;21.68;37.47;101199.40;107845;1256;71556;-71
2023/10/03 11:24:20;;;;;;;10.60;5.50;;;;;;;21.69;36.63;101201.08;107746;1258;72417;-71
2023/10/03 11:26:51;;;;;;;9.30;5.60;;;;;;;21.55;37.14;101196.46;107905;1256;59379;-68
2023/10/03 11:29:54;;;;;;;10.30;5.30;;;;;;;21.50;37.41;101191.17;108000;1256;60009;-70
2023/10/03 11:32:32;;;;;;;10.40;5.60;;;;;;;21.44;37.29;101192.05;107402;1265;74818;-72
2023/10/03 11:35:16;;;;;;;8.90;5.00;;;;;;;21.36;37.97;101189.81;107893;1256;71285;-70
2023/10/03 11:37:44;;;;;;;9.80;5.00;;;;;;;21.38;37.99;101185.95;107966;1256;72574;-71
2023/10/03 11:40:19;;;;;;;9.50;5.20;;;;;;;21.47;38.07;101184.61;107929;1256;61349;-69
2023/10/03 11:42:57;;;;;;;10.80;4.90;;;;;;;21.61;38.06;101184.08;107923;1256;61159;-71